createdAt,value
2019-04-06T00:01:25.698Z,100044.06
2019-04-06T00:03:56.595Z,100051.47
2019-04-06T00:06:31.287Z,100043.70
2019-04-06T00:09:02.000Z,100045.03
2019-04-06T00:11:34.071Z,100047.20
2019-04-06T00:14:06.270Z,100045.20
2019-04-06T00:16:39.388Z,100058.48
2019-04-06T00:19:13.525Z,100045.36
2019-04-06T00:21:44.893Z,100042.69
2019-04-06T00:24:15.464Z,100043.45
2019-04-06T00:26:45.676Z,100032.02
2019-04-06T00:29:19.819Z,100039.09
2019-04-06T00:32:02.369Z,100037.62
2019-04-06T00:34:33.616Z,100039.08
2019-04-06T00:37:03.817Z,100038.50
2019-04-06T00:39:38.047Z,100041.14
2019-04-06T00:42:12.215Z,100029.92
2019-04-06T00:44:45.075Z,100034.69
2019-04-06T00:47:16.746Z,100033.09
2019-04-06T00:49:49.868Z,100031.78
2019-04-06T00:52:22.063Z,100029.02
2019-04-06T00:54:52.289Z,100030.39
2019-04-06T00:57:23.563Z,100032.08
2019-04-06T00:59:58.432Z,100036.09
2019-04-06T01:02:34.379Z,100028.27
2019-04-06T01:05:05.803Z,100026.55
2019-04-06T01:07:38.208Z,100025.44
2019-04-06T01:10:10.620Z,100021.91
2019-04-06T01:12:42.104Z,100025.69
2019-04-06T01:15:14.913Z,100023.16
2019-04-06T01:17:45.219Z,100024.51
2019-04-06T01:20:17.457Z,100019.52
2019-04-06T01:22:48.564Z,100017.73
2019-04-06T01:25:20.478Z,100018.39
2019-04-06T01:27:51.610Z,100023.03
2019-04-06T01:30:26.250Z,100026.03
2019-04-06T01:32:57.812Z,100025.67
2019-04-06T01:35:31.786Z,100021.59
2019-04-06T01:38:03.541Z,100015.36
2019-04-06T01:40:35.865Z,100018.27
2019-04-06T01:43:07.411Z,100013.75
2019-04-06T01:45:42.032Z,100016.27
2019-04-06T01:48:13.703Z,100013.20
2019-04-06T01:50:44.372Z,100011.88
2019-04-06T01:53:21.967Z,100014.87
2019-04-06T01:56:00.510Z,100011.54
2019-04-06T01:58:32.584Z,100005.51
2019-04-06T02:01:21.733Z,100008.58
2019-04-06T02:03:54.388Z,100011.22
2019-04-06T02:06:25.907Z,100008.52
2019-04-06T02:08:58.228Z,100010.81
2019-04-06T02:11:29.259Z,100002.50
2019-04-06T02:14:04.763Z,100005.24
2019-04-06T02:16:38.594Z,100005.77
2019-04-06T02:19:10.902Z,100009.50
2019-04-06T02:21:42.182Z,99995.36
2019-04-06T02:24:12.836Z,100002.00
2019-04-06T02:26:43.360Z,100000.72
2019-04-06T02:29:13.585Z,100007.39
2019-04-06T02:32:15.571Z,99997.09
2019-04-06T02:35:01.431Z,99999.44
2019-04-06T02:37:42.937Z,99996.38
2019-04-06T02:40:30.611Z,100006.52
2019-04-06T02:43:09.279Z,100009.77
2019-04-06T02:45:40.036Z,100002.00
2019-04-06T02:48:11.183Z,100001.62
2019-04-06T02:50:43.754Z,100012.78
2019-04-06T02:53:15.536Z,100004.33
2019-04-06T02:55:47.760Z,100009.65
2019-04-06T02:58:23.261Z,100013.83
2019-04-06T03:00:56.745Z,100010.89
2019-04-06T03:03:29.010Z,100012.63
2019-04-06T03:06:00.854Z,100007.72
2019-04-06T03:08:32.863Z,100005.47
2019-04-06T03:11:04.403Z,100011.48
2019-04-06T03:13:34.953Z,100007.70
2019-04-06T03:16:05.951Z,100009.39
2019-04-06T03:18:38.935Z,100015.53
2019-04-06T03:21:10.628Z,100012.22
2019-04-06T03:23:50.733Z,100006.13
2019-04-06T03:26:20.608Z,100007.25
2019-04-06T03:28:52.938Z,100006.52
2019-04-06T03:31:27.683Z,100002.84
2019-04-06T03:33:58.793Z,100003.88
2019-04-06T03:36:34.514Z,100005.98
2019-04-06T03:39:08.472Z,100004.28
2019-04-06T03:41:41.933Z,100006.33
2019-04-06T03:44:13.305Z,100010.98
2019-04-06T03:46:46.716Z,100008.17
2019-04-06T03:49:17.301Z,100023.25
2019-04-06T03:51:50.324Z,100017.17
2019-04-06T03:54:22.361Z,100011.55
2019-04-06T03:56:54.546Z,100017.81
2019-04-06T03:59:25.579Z,100007.45
2019-04-06T04:01:58.527Z,100012.67
2019-04-06T04:04:29.160Z,100011.48
2019-04-06T04:07:04.433Z,100014.25
2019-04-06T04:09:36.545Z,100003.78
2019-04-06T04:12:08.399Z,100006.37
2019-04-06T04:14:43.627Z,100007.03
2019-04-06T04:17:17.944Z,100004.98
2019-04-06T04:19:52.366Z,100007.39
2019-04-06T04:22:26.087Z,100001.46
2019-04-06T04:24:56.888Z,100007.09
2019-04-06T04:27:30.333Z,100010.97
2019-04-06T04:30:00.120Z,100011.41
2019-04-06T04:32:32.656Z,100011.73
2019-04-06T04:35:06.020Z,100011.55
2019-04-06T04:37:40.999Z,100013.06
2019-04-06T04:40:14.618Z,100012.27
2019-04-06T04:42:46.374Z,100015.58
2019-04-06T04:45:19.615Z,100017.17
2019-04-06T04:47:54.494Z,100016.34
2019-04-06T04:50:28.201Z,100026.36
2019-04-06T04:53:03.400Z,100020.83
2019-04-06T04:55:36.630Z,100021.15
2019-04-06T04:58:11.225Z,100019.03
2019-04-06T05:00:42.697Z,100031.52
2019-04-06T05:03:14.717Z,100033.23
2019-04-06T05:05:46.991Z,100032.31
2019-04-06T05:08:20.820Z,100038.72
2019-04-06T05:10:53.549Z,100037.09
2019-04-06T05:13:27.244Z,100033.07
2019-04-06T05:16:23.472Z,100034.41
2019-04-06T05:18:55.725Z,100035.76
2019-04-06T05:21:26.584Z,100045.73
2019-04-06T05:24:01.379Z,100046.69
2019-04-06T05:26:37.818Z,100049.30
2019-04-06T05:29:07.112Z,100058.28
2019-04-06T05:31:38.182Z,100058.63
2019-04-06T05:34:09.017Z,100057.78
2019-04-06T05:36:39.669Z,100053.27
2019-04-06T05:39:12.552Z,100062.52
2019-04-06T05:41:45.247Z,100062.06
2019-04-06T05:44:18.753Z,100055.77
2019-04-06T05:46:51.636Z,100066.50
2019-04-06T05:49:26.672Z,100060.98
2019-04-06T05:51:59.238Z,100062.08
2019-04-06T05:54:31.189Z,100063.59
2019-04-06T05:57:01.740Z,100070.48
2019-04-06T05:59:33.000Z,100072.62
2019-04-06T06:02:07.837Z,100071.25
2019-04-06T06:04:40.614Z,100074.92
2019-04-06T06:07:11.219Z,100080.95
2019-04-06T06:09:43.922Z,100073.39
2019-04-06T06:12:16.881Z,100076.70
2019-04-06T06:14:47.441Z,100081.73
2019-04-06T06:17:20.295Z,100084.84
2019-04-06T06:19:51.975Z,100080.55
2019-04-06T06:22:25.921Z,100078.81
2019-04-06T06:24:58.534Z,100086.30
2019-04-06T06:27:33.783Z,100081.05
2019-04-06T06:30:11.549Z,100085.05
2019-04-06T06:32:43.819Z,100083.66
2019-04-06T06:35:15.807Z,100084.13
2019-04-06T06:37:46.785Z,100090.35
2019-04-06T06:40:20.375Z,100088.36
2019-04-06T06:42:52.903Z,100087.95
2019-04-06T06:45:24.091Z,100089.89
2019-04-06T06:47:54.792Z,100089.56
2019-04-06T06:50:25.490Z,100094.22
2019-04-06T06:52:56.309Z,100089.97
2019-04-06T06:55:28.315Z,100084.34
2019-04-06T06:58:01.263Z,100087.59
2019-04-06T07:00:33.377Z,100079.20
2019-04-06T07:03:04.249Z,100090.91
2019-04-06T07:05:38.388Z,100088.52
2019-04-06T07:08:08.864Z,100085.48
2019-04-06T07:10:41.256Z,100078.09
2019-04-06T07:13:14.038Z,100076.33
2019-04-06T07:15:44.756Z,100081.22
2019-04-06T07:18:16.652Z,100081.60
2019-04-06T07:20:50.316Z,100082.98
2019-04-06T07:23:20.873Z,100079.98
2019-04-06T07:25:58.719Z,100079.97
2019-04-06T07:28:36.378Z,100083.42
2019-04-06T07:30:58.237Z,100083.80
2019-04-06T07:33:28.478Z,100087.91
2019-04-06T07:36:05.341Z,100079.98
2019-04-06T07:38:39.272Z,100084.98
2019-04-06T07:41:12.140Z,100079.70
2019-04-06T07:43:47.498Z,100078.09
2019-04-06T07:46:18.353Z,100075.42
2019-04-06T07:48:49.042Z,100076.09
2019-04-06T07:51:21.359Z,100071.76
2019-04-06T07:53:52.764Z,100076.95
2019-04-06T07:56:29.497Z,100082.67
2019-04-06T07:59:00.047Z,100088.72
2019-04-06T08:01:31.997Z,100085.06
2019-04-06T08:04:02.933Z,100074.57
2019-04-06T08:06:34.978Z,100080.30
2019-04-06T08:09:09.046Z,100083.72
2019-04-06T08:11:40.942Z,100086.76
2019-04-06T08:14:11.522Z,100082.28
2019-04-06T08:16:42.345Z,100081.66
2019-04-06T08:19:13.078Z,100082.46
2019-04-06T08:21:43.683Z,100077.05
2019-04-06T08:24:13.982Z,100077.68
2019-04-06T08:26:46.275Z,100081.00
2019-04-06T08:29:17.301Z,100079.91
2019-04-06T08:31:48.496Z,100073.05
2019-04-06T08:34:21.500Z,100081.13
2019-04-06T08:36:52.566Z,100074.09
2019-04-06T08:39:25.834Z,100078.57
2019-04-06T08:42:00.221Z,100088.60
2019-04-06T08:44:32.362Z,100080.05
2019-04-06T08:47:03.474Z,100077.05
2019-04-06T08:49:35.276Z,100077.22
2019-04-06T08:52:06.342Z,100076.44
2019-04-06T08:54:36.948Z,100079.91
2019-04-06T08:57:08.734Z,100083.23
2019-04-06T08:59:39.277Z,100083.12
2019-04-06T09:02:11.084Z,100084.84
2019-04-06T09:04:42.539Z,100079.25
2019-04-06T09:07:14.050Z,100079.16
2019-04-06T09:09:47.190Z,100081.14
2019-04-06T09:12:24.209Z,100084.89
2019-04-06T09:14:56.032Z,100076.64
2019-04-06T09:17:27.270Z,100075.70
2019-04-06T09:19:58.013Z,100072.91
2019-04-06T09:22:32.330Z,100067.42
2019-04-06T09:25:06.328Z,100064.77
2019-04-06T09:27:38.675Z,100069.15
2019-04-06T09:30:12.412Z,100052.57
2019-04-06T09:32:44.600Z,100070.75
2019-04-06T09:35:16.251Z,100060.98
2019-04-06T09:37:52.398Z,100058.41
2019-04-06T09:40:24.148Z,100055.46
2019-04-06T09:42:56.485Z,100051.25
2019-04-06T09:46:02.596Z,100047.94
2019-04-06T09:48:55.313Z,100044.82
2019-04-06T09:52:04.769Z,100044.00
2019-04-06T09:54:54.757Z,100046.83
2019-04-06T09:57:35.164Z,100037.77
2019-04-06T10:00:15.151Z,100036.33
2019-04-06T10:03:08.857Z,100041.82
2019-04-06T10:06:04.738Z,100039.84
2019-04-06T10:08:53.246Z,100033.13
2019-04-06T10:11:43.415Z,100033.81
2019-04-06T10:14:42.346Z,100033.61
2019-04-06T10:17:31.595Z,100032.12
2019-04-06T10:20:29.281Z,100035.08
2019-04-06T10:23:17.006Z,100031.94
2019-04-06T10:26:06.181Z,100025.41
2019-04-06T10:28:59.969Z,100029.63
2019-04-06T10:31:48.887Z,100029.95
2019-04-06T10:34:40.101Z,100031.02
2019-04-06T10:37:26.705Z,100027.69
2019-04-06T10:40:21.871Z,100026.34
2019-04-06T10:43:11.442Z,100018.83
2019-04-06T10:46:01.299Z,100013.78
2019-04-06T10:48:46.855Z,100018.67
2019-04-06T10:51:36.642Z,100015.97
2019-04-06T10:54:30.907Z,100015.51
2019-04-06T10:57:30.583Z,100006.16
2019-04-06T11:00:27.916Z,100001.28
2019-04-06T11:03:09.369Z,100005.25
2019-04-06T11:06:14.868Z,100002.41
2019-04-06T11:09:00.915Z,100005.00
2019-04-06T11:11:51.414Z,99995.74
2019-04-06T11:14:41.144Z,99997.45
2019-04-06T11:17:34.030Z,99982.97
2019-04-06T11:20:27.741Z,99989.03
2019-04-06T11:23:20.340Z,99989.36
2019-04-06T11:26:10.777Z,99982.77
2019-04-06T11:28:48.279Z,99982.77
2019-04-06T11:31:37.075Z,99985.23
2019-04-06T11:34:28.096Z,99979.33
2019-04-06T11:37:14.913Z,99975.80
2019-04-06T11:40:04.454Z,99981.80
2019-04-06T11:42:51.130Z,99969.95
2019-04-06T11:45:45.627Z,99970.95
2019-04-06T11:48:48.417Z,99972.44
2019-04-06T11:51:41.080Z,99974.50
2019-04-06T11:54:31.995Z,99968.62
2019-04-06T11:57:12.079Z,99971.68
2019-04-06T12:00:06.696Z,99964.08
2019-04-06T12:02:49.559Z,99965.14
2019-04-06T12:05:40.235Z,99973.47
2019-04-06T12:08:20.370Z,99970.23
2019-04-06T12:10:59.962Z,99968.38
2019-04-06T12:13:40.163Z,99963.66
2019-04-06T12:16:31.395Z,99955.69
2019-04-06T12:19:27.398Z,99959.33
2019-04-06T12:22:18.522Z,99961.00
2019-04-06T12:25:07.933Z,99958.61
2019-04-06T12:27:58.091Z,99958.41
2019-04-06T12:30:56.007Z,99961.16
2019-04-06T12:33:54.937Z,99961.16
2019-04-06T12:36:41.362Z,99958.33
2019-04-06T12:39:52.767Z,99947.72
2019-04-06T12:42:48.564Z,99949.00
2019-04-06T12:45:45.165Z,99951.96
2019-04-06T12:48:33.646Z,99951.06
2019-04-06T12:51:20.724Z,99943.92
2019-04-06T12:54:13.848Z,99947.56
2019-04-06T12:57:09.134Z,99940.00
2019-04-06T13:00:06.474Z,99934.61
2019-04-06T13:02:57.885Z,99933.88
2019-04-06T13:05:46.120Z,99932.13
2019-04-06T13:08:54.295Z,99937.42
2019-04-06T13:11:39.301Z,99922.23
2019-04-06T13:14:20.399Z,99933.55
2019-04-06T13:17:22.381Z,99926.93
2019-04-06T13:20:09.801Z,99935.98
2019-04-06T13:23:04.134Z,99910.94
2019-04-06T13:26:04.149Z,99923.55
2019-04-06T13:28:59.587Z,99922.50
2019-04-06T13:31:54.606Z,99917.23
2019-04-06T13:34:40.631Z,99928.21
2019-04-06T13:37:33.113Z,99933.27
2019-04-06T13:40:27.339Z,99931.86
2019-04-06T13:43:18.287Z,99932.89
2019-04-06T13:46:11.947Z,99931.00
2019-04-06T13:49:09.812Z,99925.37
2019-04-06T13:52:01.339Z,99919.74
2019-04-06T13:54:42.779Z,99917.23
2019-04-06T13:57:35.473Z,99920.02
2019-04-06T14:00:20.969Z,99922.94
2019-04-06T14:03:11.323Z,99926.13
2019-04-06T14:05:51.767Z,99932.97
2019-04-06T14:09:00.009Z,99926.50
2019-04-06T14:11:50.343Z,99928.09
2019-04-06T14:14:46.522Z,99923.41
2019-04-06T14:17:46.470Z,99927.61
2019-04-06T14:20:24.706Z,99928.98
2019-04-06T14:23:13.791Z,99926.23
2019-04-06T14:25:57.968Z,99936.67
2019-04-06T14:28:54.000Z,99931.55
2019-04-06T14:31:43.635Z,99930.03
2019-04-06T14:34:37.224Z,99923.23
2019-04-06T14:37:36.462Z,99933.97
2019-04-06T14:40:18.322Z,99928.22
2019-04-06T14:43:20.150Z,99925.91
2019-04-06T14:46:10.628Z,99926.75
2019-04-06T14:49:13.867Z,99929.00
2019-04-06T14:51:57.818Z,99923.09
2019-04-06T14:55:07.950Z,99927.13
2019-04-06T14:58:06.192Z,99930.87
2019-04-06T15:00:47.339Z,99929.39
2019-04-06T15:03:47.872Z,99932.12
2019-04-06T15:06:37.520Z,99932.17
2019-04-06T15:09:40.542Z,99923.72
2019-04-06T15:12:33.185Z,99925.74
2019-04-06T15:15:40.721Z,99927.13
2019-04-06T15:18:41.202Z,99927.13
2019-04-06T15:21:33.315Z,99915.13
2019-04-06T15:24:22.917Z,99920.13
2019-04-06T15:27:09.526Z,99919.66
2019-04-06T15:29:47.760Z,99919.05
2019-04-06T15:32:40.315Z,99921.08
2019-04-06T15:35:30.163Z,99920.14
2019-04-06T15:38:28.506Z,99914.02
2019-04-06T15:41:17.307Z,99911.35
2019-04-06T15:44:16.390Z,99913.86
2019-04-06T15:47:20.691Z,99908.45
2019-04-06T15:50:17.370Z,99908.66
2019-04-06T15:53:19.507Z,99914.22
2019-04-06T15:56:09.946Z,99906.73
2019-04-06T15:59:04.740Z,99910.80
2019-04-06T16:01:58.512Z,99908.53
2019-04-06T16:04:38.135Z,99906.96
2019-04-06T16:07:33.118Z,99912.00
2019-04-06T16:10:16.490Z,99907.89
2019-04-06T16:13:08.204Z,99897.55
2019-04-06T16:15:59.156Z,99897.29
2019-04-06T16:18:51.278Z,99906.00
2019-04-06T16:21:40.085Z,99902.47
2019-04-06T16:24:38.755Z,99910.88
2019-04-06T16:27:31.184Z,99902.51
2019-04-06T16:30:24.504Z,99898.83
2019-04-06T16:33:09.681Z,99899.31
2019-04-06T16:36:03.452Z,99901.73
2019-04-06T16:38:56.095Z,99895.70
2019-04-06T16:41:43.745Z,99898.30
2019-04-06T16:44:31.846Z,99891.42
2019-04-06T16:47:24.156Z,99892.80
2019-04-06T16:50:13.787Z,99896.55
2019-04-06T16:53:07.675Z,99885.70
2019-04-06T16:55:57.588Z,99894.59
2019-04-06T16:58:47.252Z,99892.17
2019-04-06T17:01:44.165Z,99893.58
2019-04-06T17:04:34.027Z,99898.78
2019-04-06T17:07:29.161Z,99900.51
2019-04-06T17:10:13.661Z,99900.51
2019-04-06T17:13:03.476Z,99896.05
2019-04-06T17:15:50.514Z,99902.09
2019-04-06T17:18:41.336Z,99900.13
2019-04-06T17:21:28.126Z,99904.52
2019-04-06T17:24:36.247Z,99894.95
2019-04-06T17:27:25.690Z,99904.14
2019-04-06T17:30:21.316Z,99892.60
2019-04-06T17:33:30.677Z,99895.47
2019-04-06T17:36:17.161Z,99897.97
2019-04-06T17:39:15.243Z,99896.53
2019-04-06T17:42:02.386Z,99902.37
2019-04-06T17:44:42.854Z,99897.52
2019-04-06T17:47:31.784Z,99900.66
2019-04-06T17:50:10.325Z,99900.23
2019-04-06T17:52:59.525Z,99900.77
2019-04-06T17:55:48.699Z,99908.83
2019-04-06T17:58:35.495Z,99908.16
2019-04-06T18:01:30.003Z,99912.72
2019-04-06T18:04:28.245Z,99912.25
2019-04-06T18:07:17.058Z,99920.40
2019-04-06T18:10:00.122Z,99920.25
2019-04-06T18:12:52.430Z,99918.39
2019-04-06T18:15:26.122Z,99921.84
2019-04-06T18:17:58.761Z,99917.03
2019-04-06T18:20:30.037Z,99910.28
2019-04-06T18:23:01.564Z,99920.06
2019-04-06T18:25:34.202Z,99921.95
2019-04-06T18:28:06.051Z,99916.53
2019-04-06T18:30:37.473Z,99923.66
2019-04-06T18:33:13.037Z,99924.69
2019-04-06T18:35:44.077Z,99921.47
2019-04-06T18:38:27.922Z,99919.46
2019-04-06T18:41:00.882Z,99924.66
2019-04-06T18:43:32.413Z,99924.02
2019-04-06T18:46:07.113Z,99922.72
2019-04-06T18:48:39.512Z,99926.19
2019-04-06T18:51:11.241Z,99921.82
2019-04-06T18:53:41.476Z,99924.05
2019-04-06T18:56:13.468Z,99919.23
2019-04-06T18:58:45.490Z,99923.27
2019-04-06T19:01:18.047Z,99925.47
2019-04-06T19:03:49.878Z,99921.77
2019-04-06T19:06:20.719Z,99918.88
2019-04-06T19:08:52.460Z,99921.66
2019-04-06T19:11:24.617Z,99914.58
2019-04-06T19:13:59.613Z,99919.38
2019-04-06T19:16:31.112Z,99921.51
2019-04-06T19:19:04.271Z,99929.47
2019-04-06T19:21:39.856Z,99928.25
2019-04-06T19:24:13.784Z,99926.23
2019-04-06T19:26:44.032Z,99927.30
2019-04-06T19:29:16.265Z,99927.02
2019-04-06T19:31:46.947Z,99930.86
2019-04-06T19:34:19.459Z,99931.16
2019-04-06T19:36:54.319Z,99933.19
2019-04-06T19:39:24.537Z,99934.05
2019-04-06T19:41:56.365Z,99938.37
2019-04-06T19:44:29.730Z,99930.13
2019-04-06T19:47:00.018Z,99930.04
2019-04-06T19:49:31.830Z,99930.64
2019-04-06T19:52:02.722Z,99938.07
2019-04-06T19:54:35.997Z,99929.48
2019-04-06T19:57:06.750Z,99933.02
2019-04-06T19:59:37.793Z,99929.04
2019-04-06T20:02:11.227Z,99936.30
2019-04-06T20:04:42.588Z,99930.86
2019-04-06T20:07:15.854Z,99935.73
2019-04-06T20:09:47.498Z,99929.81
2019-04-06T20:12:19.332Z,99931.92
2019-04-06T20:14:51.703Z,99927.05
2019-04-06T20:17:24.242Z,99924.67
2019-04-06T20:19:56.362Z,99929.64
2019-04-06T20:22:27.226Z,99929.34
2019-04-06T20:24:58.959Z,99923.69
2019-04-06T20:27:30.734Z,99931.53
2019-04-06T20:30:02.444Z,99931.83
2019-04-06T20:32:33.122Z,99929.50
2019-04-06T20:35:06.475Z,99924.55
2019-04-06T20:37:37.538Z,99927.43
2019-04-06T20:40:14.539Z,99925.81
2019-04-06T20:42:50.210Z,99925.13
2019-04-06T20:45:24.671Z,99924.27
2019-04-06T20:47:59.547Z,99917.58
2019-04-06T20:50:31.388Z,99921.12
2019-04-06T20:53:04.626Z,99920.08
2019-04-06T20:55:35.372Z,99916.84
2019-04-06T20:58:06.502Z,99916.84
2019-04-06T21:00:37.162Z,99913.20
2019-04-06T21:03:08.721Z,99913.50
2019-04-06T21:05:39.959Z,99917.22
2019-04-06T21:08:11.251Z,99921.30
2019-04-06T21:10:41.957Z,99916.34
2019-04-06T21:13:13.668Z,99916.16
2019-04-06T21:15:46.049Z,99911.77
2019-04-06T21:18:19.858Z,99906.83
2019-04-06T21:20:53.467Z,99904.41
2019-04-06T21:23:24.312Z,99905.27
2019-04-06T21:25:55.640Z,99904.89
2019-04-06T21:28:27.655Z,99897.72
2019-04-06T21:31:01.325Z,99898.31
2019-04-06T21:33:33.962Z,99897.95
2019-04-06T21:36:08.384Z,99901.16
2019-04-06T21:38:40.496Z,99896.11
2019-04-06T21:41:11.951Z,99903.83
2019-04-06T21:43:42.477Z,99898.31
2019-04-06T21:46:13.186Z,99895.25
2019-04-06T21:48:46.894Z,99899.83
2019-04-06T21:51:18.094Z,99895.70
2019-04-06T21:53:49.719Z,99894.09
2019-04-06T21:56:20.290Z,99901.53
2019-04-06T21:58:50.813Z,99897.33
2019-04-06T22:01:22.983Z,99901.14
2019-04-06T22:03:57.639Z,99905.54
2019-04-06T22:06:33.653Z,99900.00
2019-04-06T22:09:07.152Z,99902.28
2019-04-06T22:11:37.815Z,99900.95
2019-04-06T22:14:09.331Z,99896.28
2019-04-06T22:16:40.403Z,99898.64
2019-04-06T22:19:12.128Z,99896.14
2019-04-06T22:21:45.241Z,99899.09
2019-04-06T22:24:15.938Z,99891.75
2019-04-06T22:26:49.619Z,99895.83
2019-04-06T22:29:20.686Z,99895.72
2019-04-06T22:31:51.721Z,99893.60
2019-04-06T22:34:35.420Z,99898.78
2019-04-06T22:36:59.391Z,99892.34
2019-04-06T22:39:34.309Z,99895.48
2019-04-06T22:42:05.624Z,99893.20
2019-04-06T22:44:37.167Z,99892.81
2019-04-06T22:47:07.897Z,99889.08
2019-04-06T22:49:40.512Z,99887.64
2019-04-06T22:52:12.823Z,99888.81
2019-04-06T22:54:45.808Z,99886.89
2019-04-06T22:57:16.940Z,99889.64
2019-04-06T22:59:52.573Z,99888.69
2019-04-06T23:02:23.754Z,99887.16
2019-04-06T23:05:15.165Z,99885.52
2019-04-06T23:07:47.360Z,99887.43
2019-04-06T23:10:18.473Z,99885.04
2019-04-06T23:12:49.673Z,99882.92
2019-04-06T23:15:19.884Z,99883.00
2019-04-06T23:17:52.181Z,99885.50
2019-04-06T23:20:23.337Z,99881.26
2019-04-06T23:22:54.408Z,99883.34
2019-04-06T23:25:25.654Z,99887.05
2019-04-06T23:27:58.297Z,99883.39
2019-04-06T23:30:30.080Z,99886.16
2019-04-06T23:33:00.461Z,99887.88
2019-04-06T23:35:32.360Z,99877.67
2019-04-06T23:38:06.439Z,99874.22
2019-04-06T23:40:47.754Z,99879.66
2019-04-06T23:43:18.729Z,99875.52
2019-04-06T23:45:50.382Z,99882.58
2019-04-06T23:48:21.103Z,99888.17
2019-04-06T23:50:51.983Z,99882.19
2019-04-06T23:53:24.587Z,99877.05
2019-04-06T23:55:55.275Z,99873.83
2019-04-06T23:58:29.649Z,99873.56
